Terminal Aerodrome Forecast
Issued by NWS Sioux Falls, SD

Home | Current Version | Previous Version | Graphics & Text | Print | Product List | Glossary On
Versions: 1 2 3 4 5 6 7 8 9 10 11 12 13 14
000
FTUS43 KFSD 200525
TAFHON
TAF
KHON 200525Z 2006/2106 06010G15KT P6SM OVC045
     FM201000 02009KT P6SM -SHRA OVC035
     FM201200 01008KT 6SM -SHRA OVC022
     FM201900 01012KT 3SM -SHRA BR OVC010
     FM210300 35010KT P6SM OVC010=

USA.gov is the U.S. government's official web portal to all federal, state and local government web resources and services.